sensor_id;sensor_type;location;lat;lon;timestamp;pressure;altitude;pressure_sealevel;temperature;humidity
37634;BME280;32048;49.902;22.508;2023-04-23T00:00:08;98532.28;;;4.33;100.00
37634;BME280;32048;49.902;22.508;2023-04-23T00:03:04;98524.47;;;4.32;100.00
37634;BME280;32048;49.902;22.508;2023-04-23T00:05:36;98521.00;;;4.31;100.00
37634;BME280;32048;49.902;22.508;2023-04-23T00:08:04;98528.97;;;4.27;100.00
37634;BME280;32048;49.902;22.508;2023-04-23T00:10:31;98522.09;;;4.24;100.00
37634;BME280;32048;49.902;22.508;2023-04-23T00:12:59;98518.72;;;4.21;100.00
37634;BME280;32048;49.902;22.508;2023-04-23T00:15:27;98517.00;;;4.20;100.00
37634;BME280;32048;49.902;22.508;2023-04-23T00:17:54;98525.81;;;4.17;100.00
37634;BME280;32048;49.902;22.508;2023-04-23T00:20:21;98520.66;;;4.14;100.00
37634;BME280;32048;49.902;22.508;2023-04-23T00:22:48;98519.84;;;4.12;100.00
37634;BME280;32048;49.902;22.508;2023-04-23T00:25:15;98525.16;;;4.09;100.00
37634;BME280;32048;49.902;22.508;2023-04-23T00:27:43;98518.31;;;4.05;100.00
37634;BME280;32048;49.902;22.508;2023-04-23T00:30:10;98521.78;;;4.05;100.00
37634;BME280;32048;49.902;22.508;2023-04-23T00:32:37;98515.84;;;4.00;100.00
37634;BME280;32048;49.902;22.508;2023-04-23T00:35:04;98518.44;;;4.00;100.00
37634;BME280;32048;49.902;22.508;2023-04-23T00:37:32;98510.78;;;3.94;100.00
37634;BME280;32048;49.902;22.508;2023-04-23T00:39:59;98517.88;;;3.90;100.00
37634;BME280;32048;49.902;22.508;2023-04-23T00:42:27;98513.63;;;3.86;100.00
37634;BME280;32048;49.902;22.508;2023-04-23T00:44:55;98515.47;;;3.83;100.00
37634;BME280;32048;49.902;22.508;2023-04-23T00:47:23;98521.59;;;3.82;100.00
37634;BME280;32048;49.902;22.508;2023-04-23T00:49:50;98514.66;;;3.81;100.00
37634;BME280;32048;49.902;22.508;2023-04-23T00:52:21;98510.38;;;3.78;100.00
37634;BME280;32048;49.902;22.508;2023-04-23T00:54:48;98509.63;;;3.74;100.00
37634;BME280;32048;49.902;22.508;2023-04-23T00:57:16;98506.19;;;3.72;100.00
37634;BME280;32048;49.902;22.508;2023-04-23T00:59:43;98517.50;;;3.73;100.00
37634;BME280;32048;49.902;22.508;2023-04-23T01:02:11;98506.22;;;3.71;100.00
37634;BME280;32048;49.902;22.508;2023-04-23T01:04:40;98510.63;;;3.69;100.00
37634;BME280;32048;49.902;22.508;2023-04-23T01:07:10;98503.59;;;3.72;100.00
37634;BME280;32048;49.902;22.508;2023-04-23T01:09:38;98497.44;;;3.73;100.00
37634;BME280;32048;49.902;22.508;2023-04-23T01:12:06;98501.78;;;3.74;100.00
37634;BME280;32048;49.902;22.508;2023-04-23T01:14:36;98501.78;;;3.74;100.00
37634;BME280;32048;49.902;22.508;2023-04-23T01:17:04;98501.00;;;3.71;100.00
37634;BME280;32048;49.902;22.508;2023-04-23T01:19:31;98497.56;;;3.69;100.00
37634;BME280;32048;49.902;22.508;2023-04-23T01:22:00;98498.53;;;3.66;100.00
37634;BME280;32048;49.902;22.508;2023-04-23T01:24:28;98505.50;;;3.66;100.00
37634;BME280;32048;49.902;22.508;2023-04-23T01:26:56;98495.00;;;3.67;100.00
37634;BME280;32048;49.902;22.508;2023-04-23T01:29:24;98500.09;;;3.72;100.00
37634;BME280;32048;49.902;22.508;2023-04-23T01:31:52;98502.75;;;3.70;100.00
37634;BME280;32048;49.902;22.508;2023-04-23T01:34:21;98509.78;;;3.68;100.00
37634;BME280;32048;49.902;22.508;2023-04-23T01:36:48;98498.50;;;3.68;100.00
37634;BME280;32048;49.902;22.508;2023-04-23T01:39:16;98492.53;;;3.63;100.00
37634;BME280;32048;49.902;22.508;2023-04-23T01:41:44;98494.25;;;3.64;100.00
37634;BME280;32048;49.902;22.508;2023-04-23T01:44:11;98503.84;;;3.63;100.00
37634;BME280;32048;49.902;22.508;2023-04-23T01:46:39;98503.84;;;3.63;100.00
37634;BME280;32048;49.902;22.508;2023-04-23T01:49:07;98496.84;;;3.64;100.00
37634;BME280;32048;49.902;22.508;2023-04-23T01:51:34;98503.03;;;3.61;100.00
37634;BME280;32048;49.902;22.508;2023-04-23T01:54:01;98508.38;;;3.57;100.00
37634;BME280;32048;49.902;22.508;2023-04-23T01:56:28;98502.34;;;3.54;100.00
37634;BME280;32048;49.902;22.508;2023-04-23T01:58:56;98501.56;;;3.51;100.00
37634;BME280;32048;49.902;22.508;2023-04-23T02:01:23;98495.53;;;3.49;100.00
37634;BME280;32048;49.902;22.508;2023-04-23T02:03:50;98499.06;;;3.46;100.00
37634;BME280;32048;49.902;22.508;2023-04-23T02:06:17;98502.63;;;3.44;100.00
37634;BME280;32048;49.902;22.508;2023-04-23T02:08:45;98495.75;;;3.41;100.00
37634;BME280;32048;49.902;22.508;2023-04-23T02:11:12;98500.09;;;3.41;100.00
37634;BME280;32048;49.902;22.508;2023-04-23T02:13:39;98503.69;;;3.37;100.00
37634;BME280;32048;49.902;22.508;2023-04-23T02:16:06;98499.34;;;3.36;100.00
37634;BME280;32048;49.902;22.508;2023-04-23T02:18:33;98497.66;;;3.35;100.00
37634;BME280;32048;49.902;22.508;2023-04-23T02:21:00;98502.06;;;3.32;100.00
37634;BME280;32048;49.902;22.508;2023-04-23T02:23:29;98496.84;;;3.32;100.00
37634;BME280;32048;49.902;22.508;2023-04-23T02:25:56;98495.91;;;3.35;100.00
37634;BME280;32048;49.902;22.508;2023-04-23T02:28:23;98490.66;;;3.37;100.00
37634;BME280;32048;49.902;22.508;2023-04-23T02:30:50;98496.63;;;3.40;100.00
37634;BME280;32048;49.902;22.508;2023-04-23T02:33:17;98490.53;;;3.41;100.00
37634;BME280;32048;49.902;22.508;2023-04-23T02:35:45;98490.59;;;3.38;100.00
37634;BME280;32048;49.902;22.508;2023-04-23T02:38:12;98498.47;;;3.37;100.00
37634;BME280;32048;49.902;22.508;2023-04-23T02:43:23;98491.81;;;3.25;100.00
37634;BME280;32048;49.902;22.508;2023-04-23T02:45:50;98492.81;;;3.21;100.00
37634;BME280;32048;49.902;22.508;2023-04-23T02:48:17;98490.25;;;3.19;100.00
37634;BME280;32048;49.902;22.508;2023-04-23T02:50:44;98486.94;;;3.12;100.00
37634;BME280;32048;49.902;22.508;2023-04-23T02:53:12;98493.09;;;3.10;100.00
37634;BME280;32048;49.902;22.508;2023-04-23T02:55:39;98487.09;;;3.06;100.00
37634;BME280;32048;49.902;22.508;2023-04-23T02:58:06;98492.41;;;3.03;100.00
37634;BME280;32048;49.902;22.508;2023-04-23T03:00:33;98491.59;;;3.00;100.00
37634;BME280;32048;49.902;22.508;2023-04-23T03:03:00;98497.78;;;2.96;100.00
37634;BME280;32048;49.902;22.508;2023-04-23T03:05:28;98492.66;;;2.92;100.00
37634;BME280;32048;49.902;22.508;2023-04-23T03:07:55;98490.97;;;2.91;100.00
37634;BME280;32048;49.902;22.508;2023-04-23T03:10:22;98490.06;;;2.92;100.00
37634;BME280;32048;49.902;22.508;2023-04-23T03:12:49;98495.28;;;2.92;100.00
37634;BME280;32048;49.902;22.508;2023-04-23T03:15:16;98490.16;;;2.89;100.00
37634;BME280;32048;49.902;22.508;2023-04-23T03:17:43;98491.88;;;2.89;100.00
37634;BME280;32048;49.902;22.508;2023-04-23T03:20:11;98489.25;;;2.89;100.00
37634;BME280;32048;49.902;22.508;2023-04-23T03:22:38;98486.66;;;2.89;100.00
37634;BME280;32048;49.902;22.508;2023-04-23T03:25:05;98490.09;;;2.91;100.00
37634;BME280;32048;49.902;22.508;2023-04-23T03:27:32;98486.63;;;2.90;100.00
37634;BME280;32048;49.902;22.508;2023-04-23T03:30:00;98495.28;;;2.92;100.00
37634;BME280;32048;49.902;22.508;2023-04-23T03:32:26;98493.47;;;2.95;100.00
37634;BME280;32048;49.902;22.508;2023-04-23T03:34:54;98484.69;;;2.99;100.00
37634;BME280;32048;49.902;22.508;2023-04-23T03:37:21;98485.50;;;3.01;100.00
37634;BME280;32048;49.902;22.508;2023-04-23T03:39:48;98485.31;;;3.07;100.00
37634;BME280;32048;49.902;22.508;2023-04-23T03:42:15;98484.34;;;3.11;100.00
37634;BME280;32048;49.902;22.508;2023-04-23T03:44:42;98487.66;;;3.18;100.00
37634;BME280;32048;49.902;22.508;2023-04-23T03:47:09;98481.50;;;3.20;100.00
37634;BME280;32048;49.902;22.508;2023-04-23T03:49:36;98482.28;;;3.24;100.00
37634;BME280;32048;49.902;22.508;2023-04-23T03:52:03;98487.28;;;3.31;100.00
37634;BME280;32048;49.902;22.508;2023-04-23T03:54:31;98481.88;;;3.39;100.00
37634;BME280;32048;49.902;22.508;2023-04-23T03:56:57;98484.13;;;3.51;100.00
37634;BME280;32048;49.902;22.508;2023-04-23T03:59:25;98483.69;;;3.67;100.00
37634;BME280;32048;49.902;22.508;2023-04-23T04:01:52;98483.22;;;3.84;100.00
37634;BME280;32048;49.902;22.508;2023-04-23T04:04:19;98484.47;;;4.00;100.00
37634;BME280;32048;49.902;22.508;2023-04-23T04:06:46;98484.00;;;4.17;100.00
37634;BME280;32048;49.902;22.508;2023-04-23T04:09:13;98485.09;;;4.36;100.00
37634;BME280;32048;49.902;22.508;2023-04-23T04:11:40;98481.91;;;4.55;100.00
37634;BME280;32048;49.902;22.508;2023-04-23T04:14:07;98490.03;;;4.74;100.00
37634;BME280;32048;49.902;22.508;2023-04-23T04:16:34;98479.78;;;4.93;100.00
37634;BME280;32048;49.902;22.508;2023-04-23T04:19:02;98485.31;;;5.10;100.00
37634;BME280;32048;49.902;22.508;2023-04-23T04:21:28;98491.53;;;5.33;100.00
37634;BME280;32048;49.902;22.508;2023-04-23T04:23:56;98481.94;;;5.57;100.00
37634;BME280;32048;49.902;22.508;2023-04-23T04:26:23;98488.91;;;5.81;100.00
37634;BME280;32048;49.902;22.508;2023-04-23T04:28:51;98483.19;;;5.95;100.00
37634;BME280;32048;49.902;22.508;2023-04-23T04:31:19;98486.31;;;6.05;100.00
37634;BME280;32048;49.902;22.508;2023-04-23T04:33:48;98487.72;;;6.14;100.00
37634;BME280;32048;49.902;22.508;2023-04-23T04:36:15;98487.63;;;6.39;100.00
37634;BME280;32048;49.902;22.508;2023-04-23T04:38:42;98493.84;;;6.80;100.00
37634;BME280;32048;49.902;22.508;2023-04-23T04:41:09;98488.44;;;7.26;100.00
37634;BME280;32048;49.902;22.508;2023-04-23T04:43:38;98494.03;;;7.78;100.00
37634;BME280;32048;49.902;22.508;2023-04-23T04:46:05;98498.59;;;8.31;96.40
37634;BME280;32048;49.902;22.508;2023-04-23T04:48:33;98492.03;;;8.78;93.01
37634;BME280;32048;49.902;22.508;2023-04-23T04:51:00;98495.69;;;9.28;90.86
37634;BME280;32048;49.902;22.508;2023-04-23T04:53:27;98490.25;;;9.82;87.87
37634;BME280;32048;49.902;22.508;2023-04-23T04:55:54;98493.53;;;10.36;84.37
37634;BME280;32048;49.902;22.508;2023-04-23T04:58:21;98493.31;;;10.87;80.16
37634;BME280;32048;49.902;22.508;2023-04-23T05:00:48;98491.28;;;11.36;76.61
37634;BME280;32048;49.902;22.508;2023-04-23T05:03:18;98490.34;;;11.82;72.81
37634;BME280;32048;49.902;22.508;2023-04-23T05:05:45;98494.50;;;12.15;71.78
37634;BME280;32048;49.902;22.508;2023-04-23T05:08:14;98484.38;;;12.63;69.80
37634;BME280;32048;49.902;22.508;2023-04-23T05:10:42;98491.25;;;13.20;64.94
37634;BME280;32048;49.902;22.508;2023-04-23T05:13:10;98490.91;;;13.64;59.68
37634;BME280;32048;49.902;22.508;2023-04-23T05:15:37;98487.06;;;13.94;58.74
37634;BME280;32048;49.902;22.508;2023-04-23T05:18:04;98487.13;;;14.31;55.60
37634;BME280;32048;49.902;22.508;2023-04-23T05:20:31;98484.72;;;14.52;55.98
37634;BME280;32048;49.902;22.508;2023-04-23T05:22:59;98486.66;;;14.87;55.69
37634;BME280;32048;49.902;22.508;2023-04-23T05:25:29;98478.13;;;15.30;53.30
37634;BME280;32048;49.902;22.508;2023-04-23T05:27:57;98483.06;;;15.70;51.23
37634;BME280;32048;49.902;22.508;2023-04-23T05:30:24;98484.44;;;16.09;51.92
37634;BME280;32048;49.902;22.508;2023-04-23T05:32:51;98479.78;;;16.56;50.69
37634;BME280;32048;49.902;22.508;2023-04-23T05:35:18;98478.72;;;17.02;48.45
37634;BME280;32048;49.902;22.508;2023-04-23T05:37:47;98475.50;;;17.41;47.62
37634;BME280;32048;49.902;22.508;2023-04-23T05:40:14;98477.00;;;17.97;45.28
37634;BME280;32048;49.902;22.508;2023-04-23T05:42:41;98472.31;;;18.20;43.85
37634;BME280;32048;49.902;22.508;2023-04-23T05:45:08;98478.63;;;18.69;41.56
37634;BME280;32048;49.902;22.508;2023-04-23T05:47:35;98476.31;;;18.95;40.93
37634;BME280;32048;49.902;22.508;2023-04-23T05:50:04;98472.78;;;18.85;41.91
37634;BME280;32048;49.902;22.508;2023-04-23T05:52:31;98471.38;;;18.90;42.69
37634;BME280;32048;49.902;22.508;2023-04-23T05:55:01;98479.16;;;19.13;41.78
37634;BME280;32048;49.902;22.508;2023-04-23T05:57:29;98475.03;;;19.48;42.08
37634;BME280;32048;49.902;22.508;2023-04-23T05:59:56;98476.84;;;19.77;41.09
37634;BME280;32048;49.902;22.508;2023-04-23T06:02:23;98471.19;;;20.17;40.51
37634;BME280;32048;49.902;22.508;2023-04-23T06:04:51;98476.16;;;20.40;40.26
37634;BME280;32048;49.902;22.508;2023-04-23T06:07:18;98477.94;;;20.59;38.66
37634;BME280;32048;49.902;22.508;2023-04-23T06:09:46;98481.16;;;20.62;37.74
37634;BME280;32048;49.902;22.508;2023-04-23T06:12:13;98472.63;;;20.94;37.71
37634;BME280;32048;49.902;22.508;2023-04-23T06:14:40;98484.03;;;20.79;37.58
37634;BME280;32048;49.902;22.508;2023-04-23T06:17:08;98484.69;;;21.08;38.57
37634;BME280;32048;49.902;22.508;2023-04-23T06:19:35;98481.38;;;21.14;37.93
37634;BME280;32048;49.902;22.508;2023-04-23T06:22:02;98477.56;;;21.61;38.54
37634;BME280;32048;49.902;22.508;2023-04-23T06:24:29;98479.22;;;22.06;37.07
37634;BME280;32048;49.902;22.508;2023-04-23T06:26:56;98470.38;;;22.48;35.70
37634;BME280;32048;49.902;22.508;2023-04-23T06:29:23;98475.19;;;22.79;34.95
37634;BME280;32048;49.902;22.508;2023-04-23T06:31:54;98471.72;;;23.03;35.99
37634;BME280;32048;49.902;22.508;2023-04-23T06:34:22;98479.31;;;23.24;35.03
37634;BME280;32048;49.902;22.508;2023-04-23T06:36:50;98478.16;;;23.18;34.75
37634;BME280;32048;49.902;22.508;2023-04-23T06:39:17;98479.16;;;23.50;35.51
37634;BME280;32048;49.902;22.508;2023-04-23T06:41:44;98475.34;;;24.17;32.71
37634;BME280;32048;49.902;22.508;2023-04-23T06:44:11;98472.69;;;24.64;33.28
37634;BME280;32048;49.902;22.508;2023-04-23T06:46:39;98476.13;;;25.04;32.90
37634;BME280;32048;49.902;22.508;2023-04-23T06:49:05;98471.03;;;25.56;31.53
37634;BME280;32048;49.902;22.508;2023-04-23T06:51:33;98466.28;;;25.81;31.47
37634;BME280;32048;49.902;22.508;2023-04-23T06:54:00;98469.09;;;26.32;29.91
37634;BME280;32048;49.902;22.508;2023-04-23T06:56:27;98467.19;;;26.77;29.12
37634;BME280;32048;49.902;22.508;2023-04-23T06:58:54;98460.69;;;27.29;29.43
37634;BME280;32048;49.902;22.508;2023-04-23T07:01:21;98465.72;;;27.82;28.22
37634;BME280;32048;49.902;22.508;2023-04-23T07:03:48;98464.78;;;28.31;25.43
37634;BME280;32048;49.902;22.508;2023-04-23T07:06:18;98465.41;;;28.62;25.79
37634;BME280;32048;49.902;22.508;2023-04-23T07:08:45;98464.31;;;29.11;26.04
37634;BME280;32048;49.902;22.508;2023-04-23T07:11:12;98460.78;;;29.30;25.22
37634;BME280;32048;49.902;22.508;2023-04-23T07:13:39;98463.09;;;29.33;23.99
37634;BME280;32048;49.902;22.508;2023-04-23T07:16:06;98463.19;;;28.44;19.62
37634;BME280;32048;49.902;22.508;2023-04-23T07:18:33;98466.97;;;27.15;22.12
37634;BME280;32048;49.902;22.508;2023-04-23T07:21:00;98468.91;;;26.63;21.58
37634;BME280;32048;49.902;22.508;2023-04-23T07:23:28;98458.09;;;26.19;23.66
37634;BME280;32048;49.902;22.508;2023-04-23T07:25:55;98465.00;;;25.30;24.35
37634;BME280;32048;49.902;22.508;2023-04-23T07:28:22;98460.88;;;25.58;23.03
37634;BME280;32048;49.902;22.508;2023-04-23T07:30:49;98458.63;;;25.46;23.57
37634;BME280;32048;49.902;22.508;2023-04-23T07:33:16;98463.50;;;25.28;23.15
37634;BME280;32048;49.902;22.508;2023-04-23T07:35:44;98466.53;;;25.02;23.39
37634;BME280;32048;49.902;22.508;2023-04-23T07:38:10;98475.78;;;24.53;23.00
37634;BME280;32048;49.902;22.508;2023-04-23T07:40:38;98465.63;;;24.47;23.43
37634;BME280;32048;49.902;22.508;2023-04-23T07:43:04;98465.91;;;24.21;26.03
37634;BME280;32048;49.902;22.508;2023-04-23T07:45:32;98455.69;;;24.08;25.79
37634;BME280;32048;49.902;22.508;2023-04-23T07:47:59;98470.44;;;24.28;26.03
37634;BME280;32048;49.902;22.508;2023-04-23T07:50:28;98459.06;;;24.41;25.00
37634;BME280;32048;49.902;22.508;2023-04-23T07:52:55;98453.25;;;24.69;25.09
37634;BME280;32048;49.902;22.508;2023-04-23T07:55:22;98452.84;;;24.80;24.04
37634;BME280;32048;49.902;22.508;2023-04-23T07:57:49;98462.97;;;23.58;25.42
37634;BME280;32048;49.902;22.508;2023-04-23T08:00:16;98465.66;;;23.58;25.26
37634;BME280;32048;49.902;22.508;2023-04-23T08:02:44;98449.63;;;23.98;25.02
37634;BME280;32048;49.902;22.508;2023-04-23T08:05:11;98446.97;;;24.68;25.58
37634;BME280;32048;49.902;22.508;2023-04-23T08:07:38;98449.78;;;25.52;23.49
37634;BME280;32048;49.902;22.508;2023-04-23T08:10:06;98449.06;;;25.97;22.99
37634;BME280;32048;49.902;22.508;2023-04-23T08:12:33;98438.59;;;25.93;23.49
37634;BME280;32048;49.902;22.508;2023-04-23T08:15:02;98440.09;;;26.11;23.24
37634;BME280;32048;49.902;22.508;2023-04-23T08:17:29;98443.69;;;26.63;23.61
37634;BME280;32048;49.902;22.508;2023-04-23T08:19:56;98449.88;;;26.57;22.28
37634;BME280;32048;49.902;22.508;2023-04-23T08:22:23;98441.97;;;26.77;23.78
37634;BME280;32048;49.902;22.508;2023-04-23T08:24:50;98452.09;;;27.26;22.02
37634;BME280;32048;49.902;22.508;2023-04-23T08:27:17;98444.88;;;27.83;21.99
37634;BME280;32048;49.902;22.508;2023-04-23T08:29:44;98448.75;;;28.02;22.00
37634;BME280;32048;49.902;22.508;2023-04-23T08:32:12;98442.34;;;27.81;21.97
37634;BME280;32048;49.902;22.508;2023-04-23T08:34:39;98437.88;;;27.73;21.82
37634;BME280;32048;49.902;22.508;2023-04-23T08:37:06;98441.81;;;27.92;21.42
37634;BME280;32048;49.902;22.508;2023-04-23T08:39:45;98443.63;;;28.20;21.18
37634;BME280;32048;49.902;22.508;2023-04-23T08:42:20;98437.81;;;28.23;21.12
37634;BME280;32048;49.902;22.508;2023-04-23T08:44:50;98455.66;;;28.39;20.14
37634;BME280;32048;49.902;22.508;2023-04-23T08:47:22;98438.22;;;28.20;21.50
37634;BME280;32048;49.902;22.508;2023-04-23T08:49:53;98444.81;;;28.04;20.45
37634;BME280;32048;49.902;22.508;2023-04-23T08:52:24;98440.72;;;27.58;22.05
37634;BME280;32048;49.902;22.508;2023-04-23T08:54:52;98433.28;;;27.67;21.07
37634;BME280;32048;49.902;22.508;2023-04-23T08:57:21;98423.09;;;27.48;22.21
37634;BME280;32048;49.902;22.508;2023-04-23T08:59:48;98437.66;;;27.68;23.63
37634;BME280;32048;49.902;22.508;2023-04-23T09:02:16;98425.63;;;27.06;21.82
37634;BME280;32048;49.902;22.508;2023-04-23T09:04:44;98428.44;;;26.77;22.17
37634;BME280;32048;49.902;22.508;2023-04-23T09:07:11;98423.72;;;26.85;22.07
37634;BME280;32048;49.902;22.508;2023-04-23T09:09:39;98429.53;;;26.82;22.38
37634;BME280;32048;49.902;22.508;2023-04-23T09:12:08;98421.81;;;27.01;24.10
37634;BME280;32048;49.902;22.508;2023-04-23T09:14:35;98428.97;;;27.08;23.07
37634;BME280;32048;49.902;22.508;2023-04-23T09:17:03;98416.84;;;27.26;24.59
37634;BME280;32048;49.902;22.508;2023-04-23T09:19:30;98408.13;;;27.30;22.34
37634;BME280;32048;49.902;22.508;2023-04-23T09:21:57;98413.41;;;27.17;21.09
37634;BME280;32048;49.902;22.508;2023-04-23T09:24:25;98407.19;;;27.38;21.61
37634;BME280;32048;49.902;22.508;2023-04-23T09:26:51;98404.28;;;27.46;21.99
37634;BME280;32048;49.902;22.508;2023-04-23T09:29:22;98408.84;;;27.95;21.67
37634;BME280;32048;49.902;22.508;2023-04-23T09:31:51;98405.84;;;28.67;21.07
37634;BME280;32048;49.902;22.508;2023-04-23T09:34:22;98406.19;;;29.25;21.53
37634;BME280;32048;49.902;22.508;2023-04-23T09:36:51;98407.66;;;29.74;22.12
37634;BME280;32048;49.902;22.508;2023-04-23T09:39:21;98392.25;;;30.20;19.54
37634;BME280;32048;49.902;22.508;2023-04-23T09:41:52;98400.97;;;30.49;19.94
37634;BME280;32048;49.902;22.508;2023-04-23T09:44:20;98401.47;;;30.32;20.40
37634;BME280;32048;49.902;22.508;2023-04-23T09:46:48;98396.13;;;29.66;21.16
37634;BME280;32048;49.902;22.508;2023-04-23T09:49:15;98387.00;;;30.25;20.19
37634;BME280;32048;49.902;22.508;2023-04-23T09:51:45;98395.06;;;30.97;18.35
37634;BME280;32048;49.902;22.508;2023-04-23T09:54:19;98391.78;;;31.13;17.57
37634;BME280;32048;49.902;22.508;2023-04-23T09:56:52;98394.09;;;30.39;18.78
37634;BME280;32048;49.902;22.508;2023-04-23T09:59:27;98376.41;;;29.03;19.00
37634;BME280;32048;49.902;22.508;2023-04-23T10:02:13;98384.56;;;27.31;22.02
37634;BME280;32048;49.902;22.508;2023-04-23T10:04:40;98382.84;;;26.80;22.09
37634;BME280;32048;49.902;22.508;2023-04-23T10:07:08;98370.25;;;26.72;21.69
37634;BME280;32048;49.902;22.508;2023-04-23T10:09:42;98366.91;;;27.13;20.82
37634;BME280;32048;49.902;22.508;2023-04-23T10:12:10;98371.34;;;27.43;21.58
37634;BME280;32048;49.902;22.508;2023-04-23T10:14:57;98362.06;;;27.93;19.92
37634;BME280;32048;49.902;22.508;2023-04-23T10:17:25;98365.72;;;28.07;20.97
37634;BME280;32048;49.902;22.508;2023-04-23T10:19:54;98365.25;;;28.52;20.08
37634;BME280;32048;49.902;22.508;2023-04-23T10:22:21;98347.81;;;29.28;20.61
37634;BME280;32048;49.902;22.508;2023-04-23T10:24:52;98349.50;;;30.34;18.94
37634;BME280;32048;49.902;22.508;2023-04-23T10:27:25;98352.50;;;30.57;17.51
37634;BME280;32048;49.902;22.508;2023-04-23T10:30:13;98341.91;;;29.77;19.80
37634;BME280;32048;49.902;22.508;2023-04-23T10:32:41;98346.16;;;29.33;18.62
37634;BME280;32048;49.902;22.508;2023-04-23T10:35:08;98331.88;;;29.58;19.17
37634;BME280;32048;49.902;22.508;2023-04-23T10:37:37;98339.28;;;30.16;21.03
37634;BME280;32048;49.902;22.508;2023-04-23T10:40:13;98333.06;;;31.36;20.20
37634;BME280;32048;49.902;22.508;2023-04-23T10:42:42;98338.31;;;32.18;19.11
37634;BME280;32048;49.902;22.508;2023-04-23T10:45:14;98334.25;;;32.39;17.92
37634;BME280;32048;49.902;22.508;2023-04-23T10:47:52;98330.19;;;32.60;18.17
37634;BME280;32048;49.902;22.508;2023-04-23T10:50:26;98325.13;;;33.41;18.53
37634;BME280;32048;49.902;22.508;2023-04-23T10:52:54;98328.84;;;33.82;17.73
37634;BME280;32048;49.902;22.508;2023-04-23T10:55:26;98337.69;;;34.65;17.60
37634;BME280;32048;49.902;22.508;2023-04-23T11:00:21;98328.75;;;35.93;15.33
37634;BME280;32048;49.902;22.508;2023-04-23T11:02:49;98334.38;;;36.47;14.39
37634;BME280;32048;49.902;22.508;2023-04-23T11:05:17;98321.06;;;36.39;13.61
37634;BME280;32048;49.902;22.508;2023-04-23T11:08:06;98318.78;;;35.48;13.66
37634;BME280;32048;49.902;22.508;2023-04-23T11:10:56;98315.97;;;34.63;13.60
37634;BME280;32048;49.902;22.508;2023-04-23T11:13:26;98309.34;;;32.89;14.71
37634;BME280;32048;49.902;22.508;2023-04-23T11:19:09;98304.84;;;31.23;16.22
37634;BME280;32048;49.902;22.508;2023-04-23T11:21:57;98315.88;;;30.46;17.07
37634;BME280;32048;49.902;22.508;2023-04-23T11:24:38;98307.34;;;29.84;17.24
37634;BME280;32048;49.902;22.508;2023-04-23T11:27:11;98307.91;;;30.52;17.21
37634;BME280;32048;49.902;22.508;2023-04-23T11:29:39;98305.19;;;31.08;16.52
37634;BME280;32048;49.902;22.508;2023-04-23T11:32:08;98298.88;;;32.14;16.59
37634;BME280;32048;49.902;22.508;2023-04-23T11:34:40;98299.38;;;32.83;16.21
37634;BME280;32048;49.902;22.508;2023-04-23T11:37:10;98297.38;;;33.02;16.75
37634;BME280;32048;49.902;22.508;2023-04-23T11:39:38;98291.78;;;32.24;16.13
37634;BME280;32048;49.902;22.508;2023-04-23T11:42:11;98298.72;;;31.28;16.76
37634;BME280;32048;49.902;22.508;2023-04-23T11:44:41;98286.53;;;30.03;18.18
37634;BME280;32048;49.902;22.508;2023-04-23T11:47:14;98287.59;;;29.17;17.95
37634;BME280;32048;49.902;22.508;2023-04-23T11:49:42;98283.69;;;28.25;19.72
37634;BME280;32048;49.902;22.508;2023-04-23T11:52:11;98294.47;;;27.64;22.25
37634;BME280;32048;49.902;22.508;2023-04-23T11:54:41;98280.97;;;27.77;20.66
37634;BME280;32048;49.902;22.508;2023-04-23T11:57:09;98290.97;;;28.18;20.32
37634;BME280;32048;49.902;22.508;2023-04-23T11:59:36;98284.56;;;28.39;19.32
37634;BME280;32048;49.902;22.508;2023-04-23T12:02:03;98283.06;;;27.82;19.76
37634;BME280;32048;49.902;22.508;2023-04-23T12:04:32;98278.41;;;27.27;20.21
37634;BME280;32048;49.902;22.508;2023-04-23T12:06:59;98272.78;;;27.29;20.01
37634;BME280;32048;49.902;22.508;2023-04-23T12:09:35;98273.78;;;26.71;20.59
37634;BME280;32048;49.902;22.508;2023-04-23T12:12:04;98273.09;;;26.26;21.35
37634;BME280;32048;49.902;22.508;2023-04-23T12:14:32;98265.91;;;25.82;21.63
37634;BME280;32048;49.902;22.508;2023-04-23T12:17:08;98263.50;;;25.72;20.89
37634;BME280;32048;49.902;22.508;2023-04-23T12:19:35;98262.16;;;26.34;22.08
37634;BME280;32048;49.902;22.508;2023-04-23T12:22:03;98261.38;;;26.19;22.05
37634;BME280;32048;49.902;22.508;2023-04-23T12:24:49;98253.50;;;26.24;22.33
37634;BME280;32048;49.902;22.508;2023-04-23T12:27:20;98251.75;;;26.38;23.63
37634;BME280;32048;49.902;22.508;2023-04-23T12:29:48;98257.63;;;26.20;24.05
37634;BME280;32048;49.902;22.508;2023-04-23T12:32:25;98258.72;;;25.89;24.28
37634;BME280;32048;49.902;22.508;2023-04-23T12:34:53;98250.72;;;25.66;24.64
37634;BME280;32048;49.902;22.508;2023-04-23T12:37:26;98253.91;;;25.40;25.87
37634;BME280;32048;49.902;22.508;2023-04-23T12:39:54;98249.25;;;25.19;25.20
37634;BME280;32048;49.902;22.508;2023-04-23T12:42:23;98253.78;;;25.04;25.58
37634;BME280;32048;49.902;22.508;2023-04-23T12:44:50;98249.41;;;24.65;24.85
37634;BME280;32048;49.902;22.508;2023-04-23T12:47:17;98245.47;;;24.53;26.66
37634;BME280;32048;49.902;22.508;2023-04-23T12:49:48;98250.31;;;24.57;25.65
37634;BME280;32048;49.902;22.508;2023-04-23T12:52:19;98241.00;;;24.37;24.69
37634;BME280;32048;49.902;22.508;2023-04-23T12:54:46;98242.84;;;23.90;25.07
37634;BME280;32048;49.902;22.508;2023-04-23T12:57:18;98235.38;;;23.61;26.42
37634;BME280;32048;49.902;22.508;2023-04-23T12:59:49;98238.38;;;23.27;26.29
37634;BME280;32048;49.902;22.508;2023-04-23T13:02:16;98236.41;;;23.12;27.14
37634;BME280;32048;49.902;22.508;2023-04-23T13:04:43;98232.00;;;23.11;26.90